sensor_id;sensor_type;location;lat;lon;timestamp;temperature;humidity
19415;DHT22;9843;48.882;12.592;2022-09-11T00:01:25;13.80;99.90
19415;DHT22;9843;48.882;12.592;2022-09-11T00:03:54;13.80;99.90
19415;DHT22;9843;48.882;12.592;2022-09-11T00:06:22;13.80;99.90
19415;DHT22;9843;48.882;12.592;2022-09-11T00:08:52;13.80;99.90
19415;DHT22;9843;48.882;12.592;2022-09-11T00:11:20;13.90;99.90
19415;DHT22;9843;48.882;12.592;2022-09-11T00:13:49;13.90;99.90
19415;DHT22;9843;48.882;12.592;2022-09-11T00:16:18;13.90;99.90
19415;DHT22;9843;48.882;12.592;2022-09-11T00:18:45;13.90;99.90
19415;DHT22;9843;48.882;12.592;2022-09-11T00:21:15;13.90;99.90
19415;DHT22;9843;48.882;12.592;2022-09-11T00:23:43;13.90;99.90
19415;DHT22;9843;48.882;12.592;2022-09-11T00:26:10;13.90;99.90
19415;DHT22;9843;48.882;12.592;2022-09-11T00:28:37;13.90;99.90
19415;DHT22;9843;48.882;12.592;2022-09-11T00:31:06;13.90;99.90
19415;DHT22;9843;48.882;12.592;2022-09-11T00:33:33;13.90;99.90
19415;DHT22;9843;48.882;12.592;2022-09-11T00:36:03;13.90;99.90
19415;DHT22;9843;48.882;12.592;2022-09-11T00:38:33;13.90;99.90
19415;DHT22;9843;48.882;12.592;2022-09-11T00:41:02;13.90;99.90
19415;DHT22;9843;48.882;12.592;2022-09-11T00:46:11;13.90;99.90
19415;DHT22;9843;48.882;12.592;2022-09-11T00:48:38;13.90;99.90
19415;DHT22;9843;48.882;12.592;2022-09-11T00:51:05;13.90;99.90
19415;DHT22;9843;48.882;12.592;2022-09-11T00:53:35;13.90;99.90
19415;DHT22;9843;48.882;12.592;2022-09-11T00:56:05;13.90;99.90
19415;DHT22;9843;48.882;12.592;2022-09-11T00:58:37;13.90;99.90
19415;DHT22;9843;48.882;12.592;2022-09-11T01:01:05;13.90;99.90
19415;DHT22;9843;48.882;12.592;2022-09-11T01:03:32;13.90;99.90
19415;DHT22;9843;48.882;12.592;2022-09-11T01:05:59;13.90;99.90
19415;DHT22;9843;48.882;12.592;2022-09-11T01:08:26;13.90;99.90
19415;DHT22;9843;48.882;12.592;2022-09-11T01:11:03;13.90;99.90
19415;DHT22;9843;48.882;12.592;2022-09-11T01:13:36;13.90;99.90
19415;DHT22;9843;48.882;12.592;2022-09-11T01:16:11;13.90;99.90
19415;DHT22;9843;48.882;12.592;2022-09-11T01:18:47;13.90;99.90
19415;DHT22;9843;48.882;12.592;2022-09-11T01:21:34;13.90;99.90
19415;DHT22;9843;48.882;12.592;2022-09-11T01:24:17;13.80;99.90
19415;DHT22;9843;48.882;12.592;2022-09-11T01:26:56;13.80;99.90
19415;DHT22;9843;48.882;12.592;2022-09-11T01:29:30;13.80;99.90
19415;DHT22;9843;48.882;12.592;2022-09-11T01:32:05;13.80;99.90
19415;DHT22;9843;48.882;12.592;2022-09-11T01:34:41;13.80;99.90
19415;DHT22;9843;48.882;12.592;2022-09-11T01:37:13;13.80;99.90
19415;DHT22;9843;48.882;12.592;2022-09-11T01:39:45;13.80;99.90
19415;DHT22;9843;48.882;12.592;2022-09-11T01:42:18;13.80;99.90
19415;DHT22;9843;48.882;12.592;2022-09-11T01:44:50;13.80;99.90
19415;DHT22;9843;48.882;12.592;2022-09-11T01:47:19;13.80;99.90
19415;DHT22;9843;48.882;12.592;2022-09-11T01:49:49;13.80;99.90
19415;DHT22;9843;48.882;12.592;2022-09-11T01:52:18;13.80;99.90
19415;DHT22;9843;48.882;12.592;2022-09-11T01:54:50;13.70;99.90
19415;DHT22;9843;48.882;12.592;2022-09-11T01:57:23;13.70;99.90
19415;DHT22;9843;48.882;12.592;2022-09-11T01:59:56;13.70;99.90
19415;DHT22;9843;48.882;12.592;2022-09-11T02:02:27;13.70;99.90
19415;DHT22;9843;48.882;12.592;2022-09-11T02:05:00;13.60;99.90
19415;DHT22;9843;48.882;12.592;2022-09-11T02:07:30;13.60;99.90
19415;DHT22;9843;48.882;12.592;2022-09-11T02:10:01;13.60;99.90
19415;DHT22;9843;48.882;12.592;2022-09-11T02:12:38;13.60;99.90
19415;DHT22;9843;48.882;12.592;2022-09-11T02:15:09;13.60;99.90
19415;DHT22;9843;48.882;12.592;2022-09-11T02:17:44;13.60;99.90
19415;DHT22;9843;48.882;12.592;2022-09-11T02:20:13;13.60;99.90
19415;DHT22;9843;48.882;12.592;2022-09-11T02:22:40;13.60;99.90
19415;DHT22;9843;48.882;12.592;2022-09-11T02:25:08;13.60;99.90
19415;DHT22;9843;48.882;12.592;2022-09-11T02:27:35;13.70;99.90
19415;DHT22;9843;48.882;12.592;2022-09-11T02:30:03;13.70;99.90
19415;DHT22;9843;48.882;12.592;2022-09-11T02:32:33;13.70;99.90
19415;DHT22;9843;48.882;12.592;2022-09-11T02:35:02;13.60;99.90
19415;DHT22;9843;48.882;12.592;2022-09-11T02:37:46;13.60;99.90
19415;DHT22;9843;48.882;12.592;2022-09-11T02:40:30;13.60;99.90
19415;DHT22;9843;48.882;12.592;2022-09-11T02:43:09;13.60;99.90
19415;DHT22;9843;48.882;12.592;2022-09-11T02:45:47;13.70;99.90
19415;DHT22;9843;48.882;12.592;2022-09-11T02:48:32;13.60;99.90
19415;DHT22;9843;48.882;12.592;2022-09-11T02:51:10;13.60;99.90
19415;DHT22;9843;48.882;12.592;2022-09-11T02:53:46;13.60;99.90
19415;DHT22;9843;48.882;12.592;2022-09-11T02:56:16;13.70;99.90
19415;DHT22;9843;48.882;12.592;2022-09-11T02:58:49;13.60;99.90
19415;DHT22;9843;48.882;12.592;2022-09-11T03:01:20;13.60;99.90
19415;DHT22;9843;48.882;12.592;2022-09-11T03:03:48;13.60;99.90
19415;DHT22;9843;48.882;12.592;2022-09-11T03:06:17;13.60;99.90
19415;DHT22;9843;48.882;12.592;2022-09-11T03:08:45;13.60;99.90
19415;DHT22;9843;48.882;12.592;2022-09-11T03:11:13;13.60;99.90
19415;DHT22;9843;48.882;12.592;2022-09-11T03:13:42;13.60;99.90
19415;DHT22;9843;48.882;12.592;2022-09-11T03:16:09;13.60;99.90
19415;DHT22;9843;48.882;12.592;2022-09-11T03:18:36;13.60;99.90
19415;DHT22;9843;48.882;12.592;2022-09-11T03:21:05;13.50;99.90
19415;DHT22;9843;48.882;12.592;2022-09-11T03:23:32;13.60;99.90
19415;DHT22;9843;48.882;12.592;2022-09-11T03:25:58;13.60;99.90
19415;DHT22;9843;48.882;12.592;2022-09-11T03:28:25;13.60;99.90
19415;DHT22;9843;48.882;12.592;2022-09-11T03:30:52;13.60;99.90
19415;DHT22;9843;48.882;12.592;2022-09-11T03:33:19;13.60;99.90
19415;DHT22;9843;48.882;12.592;2022-09-11T03:35:46;13.60;99.90
19415;DHT22;9843;48.882;12.592;2022-09-11T03:38:15;13.50;99.90
19415;DHT22;9843;48.882;12.592;2022-09-11T03:40:42;13.60;99.90
19415;DHT22;9843;48.882;12.592;2022-09-11T03:43:08;13.50;99.90
19415;DHT22;9843;48.882;12.592;2022-09-11T03:45:36;13.50;99.90
19415;DHT22;9843;48.882;12.592;2022-09-11T03:48:04;13.50;99.90
19415;DHT22;9843;48.882;12.592;2022-09-11T03:50:31;13.50;99.90
19415;DHT22;9843;48.882;12.592;2022-09-11T03:52:58;13.60;99.90
19415;DHT22;9843;48.882;12.592;2022-09-11T03:55:26;13.60;99.90
19415;DHT22;9843;48.882;12.592;2022-09-11T03:57:53;13.50;99.90
19415;DHT22;9843;48.882;12.592;2022-09-11T04:00:20;13.60;99.90
19415;DHT22;9843;48.882;12.592;2022-09-11T04:02:46;13.50;99.90
19415;DHT22;9843;48.882;12.592;2022-09-11T04:05:14;13.50;99.90
19415;DHT22;9843;48.882;12.592;2022-09-11T04:07:41;13.50;99.90
19415;DHT22;9843;48.882;12.592;2022-09-11T04:10:08;13.50;99.90
19415;DHT22;9843;48.882;12.592;2022-09-11T04:12:36;13.50;99.90
19415;DHT22;9843;48.882;12.592;2022-09-11T04:15:04;13.50;99.90
19415;DHT22;9843;48.882;12.592;2022-09-11T04:17:31;13.50;99.90
19415;DHT22;9843;48.882;12.592;2022-09-11T04:19:57;13.50;99.90
19415;DHT22;9843;48.882;12.592;2022-09-11T04:22:24;13.50;99.90
19415;DHT22;9843;48.882;12.592;2022-09-11T04:24:51;13.50;99.90
19415;DHT22;9843;48.882;12.592;2022-09-11T04:27:18;13.50;99.90
19415;DHT22;9843;48.882;12.592;2022-09-11T04:29:49;13.40;99.90
19415;DHT22;9843;48.882;12.592;2022-09-11T04:32:16;13.40;99.90
19415;DHT22;9843;48.882;12.592;2022-09-11T04:34:43;13.40;99.90
19415;DHT22;9843;48.882;12.592;2022-09-11T04:37:10;13.40;99.90
19415;DHT22;9843;48.882;12.592;2022-09-11T04:39:36;13.40;99.90
19415;DHT22;9843;48.882;12.592;2022-09-11T04:42:04;13.40;99.90
19415;DHT22;9843;48.882;12.592;2022-09-11T04:44:30;13.30;99.90
19415;DHT22;9843;48.882;12.592;2022-09-11T04:46:58;13.40;99.90
19415;DHT22;9843;48.882;12.592;2022-09-11T04:49:25;13.30;99.90
19415;DHT22;9843;48.882;12.592;2022-09-11T04:51:52;13.30;99.90
19415;DHT22;9843;48.882;12.592;2022-09-11T04:54:19;13.40;99.90
19415;DHT22;9843;48.882;12.592;2022-09-11T04:56:46;13.40;99.90
19415;DHT22;9843;48.882;12.592;2022-09-11T04:59:15;13.30;99.90
19415;DHT22;9843;48.882;12.592;2022-09-11T05:01:44;13.30;99.90
19415;DHT22;9843;48.882;12.592;2022-09-11T05:04:14;13.40;99.90
19415;DHT22;9843;48.882;12.592;2022-09-11T05:06:41;13.40;99.90
19415;DHT22;9843;48.882;12.592;2022-09-11T05:09:10;13.40;99.90
19415;DHT22;9843;48.882;12.592;2022-09-11T05:11:36;13.50;99.90
19415;DHT22;9843;48.882;12.592;2022-09-11T05:14:04;13.60;99.90
19415;DHT22;9843;48.882;12.592;2022-09-11T05:16:31;13.70;99.90
19415;DHT22;9843;48.882;12.592;2022-09-11T05:18:59;13.70;99.90
19415;DHT22;9843;48.882;12.592;2022-09-11T05:21:29;13.80;99.90
19415;DHT22;9843;48.882;12.592;2022-09-11T05:23:58;13.70;99.90
19415;DHT22;9843;48.882;12.592;2022-09-11T05:26:28;13.70;99.90
19415;DHT22;9843;48.882;12.592;2022-09-11T05:28:56;13.70;99.90
19415;DHT22;9843;48.882;12.592;2022-09-11T05:31:23;13.70;99.90
19415;DHT22;9843;48.882;12.592;2022-09-11T05:33:51;13.70;99.90
19415;DHT22;9843;48.882;12.592;2022-09-11T05:36:18;13.70;99.90
19415;DHT22;9843;48.882;12.592;2022-09-11T05:38:47;13.70;99.90
19415;DHT22;9843;48.882;12.592;2022-09-11T05:41:14;13.70;99.90
19415;DHT22;9843;48.882;12.592;2022-09-11T05:43:42;13.70;99.90
19415;DHT22;9843;48.882;12.592;2022-09-11T05:46:10;13.80;99.90
19415;DHT22;9843;48.882;12.592;2022-09-11T05:48:37;13.80;99.90
19415;DHT22;9843;48.882;12.592;2022-09-11T05:51:05;13.80;99.90
19415;DHT22;9843;48.882;12.592;2022-09-11T05:53:33;13.70;99.90
19415;DHT22;9843;48.882;12.592;2022-09-11T05:56:06;13.70;99.90
19415;DHT22;9843;48.882;12.592;2022-09-11T05:58:34;13.70;99.90
19415;DHT22;9843;48.882;12.592;2022-09-11T06:01:05;13.70;99.90
19415;DHT22;9843;48.882;12.592;2022-09-11T06:03:33;13.70;99.90
19415;DHT22;9843;48.882;12.592;2022-09-11T06:06:00;13.60;99.90
19415;DHT22;9843;48.882;12.592;2022-09-11T06:08:27;13.60;99.90
19415;DHT22;9843;48.882;12.592;2022-09-11T06:10:56;13.60;99.90
19415;DHT22;9843;48.882;12.592;2022-09-11T06:13:27;13.60;99.90
19415;DHT22;9843;48.882;12.592;2022-09-11T06:15:54;13.60;99.90
19415;DHT22;9843;48.882;12.592;2022-09-11T06:18:20;13.70;99.90
19415;DHT22;9843;48.882;12.592;2022-09-11T06:20:54;13.70;99.90
19415;DHT22;9843;48.882;12.592;2022-09-11T06:23:22;13.70;99.90
19415;DHT22;9843;48.882;12.592;2022-09-11T06:25:48;13.80;99.90
19415;DHT22;9843;48.882;12.592;2022-09-11T06:28:19;13.80;99.90
19415;DHT22;9843;48.882;12.592;2022-09-11T06:30:48;13.80;99.90
19415;DHT22;9843;48.882;12.592;2022-09-11T06:33:15;13.80;99.90
19415;DHT22;9843;48.882;12.592;2022-09-11T06:35:54;13.80;99.90
19415;DHT22;9843;48.882;12.592;2022-09-11T06:38:21;13.80;99.90
19415;DHT22;9843;48.882;12.592;2022-09-11T06:40:47;13.70;99.90
19415;DHT22;9843;48.882;12.592;2022-09-11T06:43:14;13.70;99.90
19415;DHT22;9843;48.882;12.592;2022-09-11T06:45:41;13.70;99.90
19415;DHT22;9843;48.882;12.592;2022-09-11T06:48:09;13.70;99.90
19415;DHT22;9843;48.882;12.592;2022-09-11T06:50:36;13.70;99.90
19415;DHT22;9843;48.882;12.592;2022-09-11T06:53:04;13.60;99.90
19415;DHT22;9843;48.882;12.592;2022-09-11T06:55:31;13.60;99.90
19415;DHT22;9843;48.882;12.592;2022-09-11T06:57:58;13.70;99.90
19415;DHT22;9843;48.882;12.592;2022-09-11T07:00:25;13.70;99.90
19415;DHT22;9843;48.882;12.592;2022-09-11T07:02:52;13.70;99.90
19415;DHT22;9843;48.882;12.592;2022-09-11T07:05:20;13.70;99.90
19415;DHT22;9843;48.882;12.592;2022-09-11T07:07:47;13.80;99.90
19415;DHT22;9843;48.882;12.592;2022-09-11T07:10:15;13.80;99.90
19415;DHT22;9843;48.882;12.592;2022-09-11T07:12:42;13.80;99.90
19415;DHT22;9843;48.882;12.592;2022-09-11T07:15:09;13.80;99.90
19415;DHT22;9843;48.882;12.592;2022-09-11T07:17:36;13.90;99.90
19415;DHT22;9843;48.882;12.592;2022-09-11T07:20:04;13.90;99.90
19415;DHT22;9843;48.882;12.592;2022-09-11T07:22:33;13.90;99.90
19415;DHT22;9843;48.882;12.592;2022-09-11T07:25:00;13.90;99.90
19415;DHT22;9843;48.882;12.592;2022-09-11T07:27:27;13.90;99.90
19415;DHT22;9843;48.882;12.592;2022-09-11T07:29:55;14.00;99.90
19415;DHT22;9843;48.882;12.592;2022-09-11T07:32:22;14.00;99.90
19415;DHT22;9843;48.882;12.592;2022-09-11T07:34:51;14.00;99.90
19415;DHT22;9843;48.882;12.592;2022-09-11T07:37:18;14.10;99.90
19415;DHT22;9843;48.882;12.592;2022-09-11T07:39:46;14.10;99.90
19415;DHT22;9843;48.882;12.592;2022-09-11T07:42:12;14.20;99.90
19415;DHT22;9843;48.882;12.592;2022-09-11T07:44:39;14.20;99.90
19415;DHT22;9843;48.882;12.592;2022-09-11T07:47:06;14.30;99.90
19415;DHT22;9843;48.882;12.592;2022-09-11T07:49:32;14.40;99.90
19415;DHT22;9843;48.882;12.592;2022-09-11T07:51:59;14.50;99.90
19415;DHT22;9843;48.882;12.592;2022-09-11T07:54:28;14.70;99.90
19415;DHT22;9843;48.882;12.592;2022-09-11T07:56:56;14.80;99.90
19415;DHT22;9843;48.882;12.592;2022-09-11T07:59:23;15.00;99.90
19415;DHT22;9843;48.882;12.592;2022-09-11T08:01:50;15.30;99.90
19415;DHT22;9843;48.882;12.592;2022-09-11T08:04:17;15.40;99.90
19415;DHT22;9843;48.882;12.592;2022-09-11T08:06:44;15.50;99.90
19415;DHT22;9843;48.882;12.592;2022-09-11T08:09:14;15.60;99.90
19415;DHT22;9843;48.882;12.592;2022-09-11T08:11:42;15.90;99.90
19415;DHT22;9843;48.882;12.592;2022-09-11T08:14:12;16.10;99.90
19415;DHT22;9843;48.882;12.592;2022-09-11T08:16:39;16.30;99.90
19415;DHT22;9843;48.882;12.592;2022-09-11T08:19:06;16.60;99.90
19415;DHT22;9843;48.882;12.592;2022-09-11T08:21:33;16.80;99.90
19415;DHT22;9843;48.882;12.592;2022-09-11T08:24:01;17.20;99.90
19415;DHT22;9843;48.882;12.592;2022-09-11T08:26:28;17.40;99.90
19415;DHT22;9843;48.882;12.592;2022-09-11T08:28:57;17.90;99.90
19415;DHT22;9843;48.882;12.592;2022-09-11T08:31:26;18.30;99.90
19415;DHT22;9843;48.882;12.592;2022-09-11T08:33:53;18.70;99.90
19415;DHT22;9843;48.882;12.592;2022-09-11T08:36:20;19.10;99.90
19415;DHT22;9843;48.882;12.592;2022-09-11T08:38:48;19.40;99.90
19415;DHT22;9843;48.882;12.592;2022-09-11T08:41:31;19.50;99.90
19415;DHT22;9843;48.882;12.592;2022-09-11T08:44:03;19.40;99.90
19415;DHT22;9843;48.882;12.592;2022-09-11T08:46:35;19.50;99.90
19415;DHT22;9843;48.882;12.592;2022-09-11T08:49:07;19.40;99.90
19415;DHT22;9843;48.882;12.592;2022-09-11T08:51:36;19.40;99.90
19415;DHT22;9843;48.882;12.592;2022-09-11T08:54:05;19.30;99.90
19415;DHT22;9843;48.882;12.592;2022-09-11T08:56:33;19.40;99.90
19415;DHT22;9843;48.882;12.592;2022-09-11T08:59:20;19.30;99.90
19415;DHT22;9843;48.882;12.592;2022-09-11T09:01:55;19.20;99.90
19415;DHT22;9843;48.882;12.592;2022-09-11T09:04:38;19.40;99.90
19415;DHT22;9843;48.882;12.592;2022-09-11T09:07:12;19.50;99.90
19415;DHT22;9843;48.882;12.592;2022-09-11T09:09:48;19.50;99.90
19415;DHT22;9843;48.882;12.592;2022-09-11T09:12:23;19.50;99.90
19415;DHT22;9843;48.882;12.592;2022-09-11T09:15:10;19.50;99.90
19415;DHT22;9843;48.882;12.592;2022-09-11T09:17:46;19.40;99.90
19415;DHT22;9843;48.882;12.592;2022-09-11T09:20:17;19.50;99.90
19415;DHT22;9843;48.882;12.592;2022-09-11T09:22:50;19.70;99.90
19415;DHT22;9843;48.882;12.592;2022-09-11T09:25:21;19.80;99.90
19415;DHT22;9843;48.882;12.592;2022-09-11T09:27:52;19.90;99.90
19415;DHT22;9843;48.882;12.592;2022-09-11T09:30:21;20.10;99.90
19415;DHT22;9843;48.882;12.592;2022-09-11T09:32:56;20.20;99.90
19415;DHT22;9843;48.882;12.592;2022-09-11T09:35:29;20.50;99.90
19415;DHT22;9843;48.882;12.592;2022-09-11T09:37:58;20.80;99.90
19415;DHT22;9843;48.882;12.592;2022-09-11T09:40:25;21.60;99.90
19415;DHT22;9843;48.882;12.592;2022-09-11T09:43:07;22.60;99.90
19415;DHT22;9843;48.882;12.592;2022-09-11T09:45:47;24.30;99.90
19415;DHT22;9843;48.882;12.592;2022-09-11T09:48:17;26.20;99.90
19415;DHT22;9843;48.882;12.592;2022-09-11T09:50:44;27.60;99.90
19415;DHT22;9843;48.882;12.592;2022-09-11T09:53:16;29.20;99.90
19415;DHT22;9843;48.882;12.592;2022-09-11T09:55:45;30.00;99.90
19415;DHT22;9843;48.882;12.592;2022-09-11T09:58:13;30.20;99.90
19415;DHT22;9843;48.882;12.592;2022-09-11T10:00:40;31.00;99.90
19415;DHT22;9843;48.882;12.592;2022-09-11T10:03:19;31.60;99.20
19415;DHT22;9843;48.882;12.592;2022-09-11T10:05:48;32.10;96.10
19415;DHT22;9843;48.882;12.592;2022-09-11T10:08:25;32.20;92.40
19415;DHT22;9843;48.882;12.592;2022-09-11T10:10:55;31.50;92.30
19415;DHT22;9843;48.882;12.592;2022-09-11T10:13:23;30.30;92.10
19415;DHT22;9843;48.882;12.592;2022-09-11T10:15:54;28.50;93.40
19415;DHT22;9843;48.882;12.592;2022-09-11T10:18:40;27.50;95.90
19415;DHT22;9843;48.882;12.592;2022-09-11T10:21:29;26.30;97.50
19415;DHT22;9843;48.882;12.592;2022-09-11T10:23:59;24.90;99.90
19415;DHT22;9843;48.882;12.592;2022-09-11T10:26:30;24.10;99.90
19415;DHT22;9843;48.882;12.592;2022-09-11T10:29:04;23.60;99.90
19415;DHT22;9843;48.882;12.592;2022-09-11T10:31:32;23.50;99.90
19415;DHT22;9843;48.882;12.592;2022-09-11T10:34:03;23.70;99.90
19415;DHT22;9843;48.882;12.592;2022-09-11T10:36:30;24.70;99.90
19415;DHT22;9843;48.882;12.592;2022-09-11T10:38:58;25.60;99.90
19415;DHT22;9843;48.882;12.592;2022-09-11T10:41:26;26.20;99.90
19415;DHT22;9843;48.882;12.592;2022-09-11T10:43:55;26.70;99.90
19415;DHT22;9843;48.882;12.592;2022-09-11T10:46:29;26.60;99.80
19415;DHT22;9843;48.882;12.592;2022-09-11T10:48:58;26.30;99.50
19415;DHT22;9843;48.882;12.592;2022-09-11T10:51:28;26.00;99.90
19415;DHT22;9843;48.882;12.592;2022-09-11T10:54:00;25.60;99.90
19415;DHT22;9843;48.882;12.592;2022-09-11T10:56:29;25.30;99.90
19415;DHT22;9843;48.882;12.592;2022-09-11T10:59:01;25.30;99.90
19415;DHT22;9843;48.882;12.592;2022-09-11T11:01:30;25.60;99.90
19415;DHT22;9843;48.882;12.592;2022-09-11T11:03:57;25.90;99.90
19415;DHT22;9843;48.882;12.592;2022-09-11T11:06:37;27.20;99.50
19415;DHT22;9843;48.882;12.592;2022-09-11T11:09:19;29.00;95.40
19415;DHT22;9843;48.882;12.592;2022-09-11T11:11:57;31.30;92.70
19415;DHT22;9843;48.882;12.592;2022-09-11T11:14:58;33.10;86.50
19415;DHT22;9843;48.882;12.592;2022-09-11T11:17:35;33.20;80.90
19415;DHT22;9843;48.882;12.592;2022-09-11T11:20:15;32.60;81.30
19415;DHT22;9843;48.882;12.592;2022-09-11T11:23:17;32.00;84.10
19415;DHT22;9843;48.882;12.592;2022-09-11T11:25:58;31.20;84.50
19415;DHT22;9843;48.882;12.592;2022-09-11T11:28:56;30.50;85.60
19415;DHT22;9843;48.882;12.592;2022-09-11T11:31:36;29.50;86.80
19415;DHT22;9843;48.882;12.592;2022-09-11T11:34:22;29.10;90.50
19415;DHT22;9843;48.882;12.592;2022-09-11T11:36:54;28.70;90.30
19415;DHT22;9843;48.882;12.592;2022-09-11T11:39:28;27.50;91.00
19415;DHT22;9843;48.882;12.592;2022-09-11T11:42:04;26.80;93.00
19415;DHT22;9843;48.882;12.592;2022-09-11T11:44:38;26.40;93.10
19415;DHT22;9843;48.882;12.592;2022-09-11T11:47:07;26.00;93.20
19415;DHT22;9843;48.882;12.592;2022-09-11T11:49:46;25.70;94.30
19415;DHT22;9843;48.882;12.592;2022-09-11T11:52:32;25.80;93.60
19415;DHT22;9843;48.882;12.592;2022-09-11T11:55:06;25.70;93.90
19415;DHT22;9843;48.882;12.592;2022-09-11T11:57:44;25.70;93.80
19415;DHT22;9843;48.882;12.592;2022-09-11T12:00:14;25.50;96.00
19415;DHT22;9843;48.882;12.592;2022-09-11T12:02:45;25.20;94.80
19415;DHT22;9843;48.882;12.592;2022-09-11T12:05:18;24.90;95.50
19415;DHT22;9843;48.882;12.592;2022-09-11T12:07:49;24.60;96.20
19415;DHT22;9843;48.882;12.592;2022-09-11T12:10:27;23.80;96.20
19415;DHT22;9843;48.882;12.592;2022-09-11T12:12:58;23.40;97.60
19415;DHT22;9843;48.882;12.592;2022-09-11T12:15:27;23.00;97.90
19415;DHT22;9843;48.882;12.592;2022-09-11T12:17:58;22.50;98.80
19415;DHT22;9843;48.882;12.592;2022-09-11T12:20:34;22.30;99.60
19415;DHT22;9843;48.882;12.592;2022-09-11T12:23:02;21.90;99.90
19415;DHT22;9843;48.882;12.592;2022-09-11T12:26:14;21.90;99.90
19415;DHT22;9843;48.882;12.592;2022-09-11T12:28:42;22.10;99.90
19415;DHT22;9843;48.882;12.592;2022-09-11T12:31:10;22.50;99.90
19415;DHT22;9843;48.882;12.592;2022-09-11T12:33:55;22.70;99.90
19415;DHT22;9843;48.882;12.592;2022-09-11T12:36:47;22.70;99.90
19415;DHT22;9843;48.882;12.592;2022-09-11T12:39:24;22.60;99.90
19415;DHT22;9843;48.882;12.592;2022-09-11T12:45:00;22.40;99.90
19415;DHT22;9843;48.882;12.592;2022-09-11T12:47:32;22.80;99.90
19415;DHT22;9843;48.882;12.592;2022-09-11T12:50:06;23.50;99.90
19415;DHT22;9843;48.882;12.592;2022-09-11T12:52:47;24.30;99.90
19415;DHT22;9843;48.882;12.592;2022-09-11T12:55:29;24.60;98.70
19415;DHT22;9843;48.882;12.592;2022-09-11T12:57:59;24.70;98.30
19415;DHT22;9843;48.882;12.592;2022-09-11T13:00:34;25.10;97.20
19415;DHT22;9843;48.882;12.592;2022-09-11T13:03:02;25.20;96.70
19415;DHT22;9843;48.882;12.592;2022-09-11T13:05:31;25.40;95.70
19415;DHT22;9843;48.882;12.592;2022-09-11T13:08:02;25.70;97.80
19415;DHT22;9843;48.882;12.592;2022-09-11T13:10:32;26.00;95.40
19415;DHT22;9843;48.882;12.592;2022-09-11T13:13:02;25.70;94.70
19415;DHT22;9843;48.882;12.592;2022-09-11T13:15:41;25.20;95.40
19415;DHT22;9843;48.882;12.592;2022-09-11T13:18:24;24.90;95.70
19415;DHT22;9843;48.882;12.592;2022-09-11T13:21:16;25.20;95.80
19415;DHT22;9843;48.882;12.592;2022-09-11T13:23:44;25.70;95.80
19415;DHT22;9843;48.882;12.592;2022-09-11T13:26:17;25.80;95.20
19415;DHT22;9843;48.882;12.592;2022-09-11T13:28:49;25.60;96.30
19415;DHT22;9843;48.882;12.592;2022-09-11T13:31:19;25.80;95.00
19415;DHT22;9843;48.882;12.592;2022-09-11T13:33:50;25.80;94.70
19415;DHT22;9843;48.882;12.592;2022-09-11T13:36:20;25.70;94.60
19415;DHT22;9843;48.882;12.592;2022-09-11T13:38:51;25.70;96.00
19415;DHT22;9843;48.882;12.592;2022-09-11T13:41:22;25.80;95.20
19415;DHT22;9843;48.882;12.592;2022-09-11T13:43:52;25.80;94.40
19415;DHT22;9843;48.882;12.592;2022-09-11T13:46:23;25.70;94.90
19415;DHT22;9843;48.882;12.592;2022-09-11T13:48:54;25.60;94.00
19415;DHT22;9843;48.882;12.592;2022-09-11T13:51:26;25.60;94.70
19415;DHT22;9843;48.882;12.592;2022-09-11T13:54:01;25.40;93.80
19415;DHT22;9843;48.882;12.592;2022-09-11T13:56:44;24.90;95.40
19415;DHT22;9843;48.882;12.592;2022-09-11T13:59:43;24.80;96.10
19415;DHT22;9843;48.882;12.592;2022-09-11T14:02:27;24.90;95.30
19415;DHT22;9843;48.882;12.592;2022-09-11T14:05:06;25.00;95.50
19415;DHT22;9843;48.882;12.592;2022-09-11T14:07:42;25.50;94.50
19415;DHT22;9843;48.882;12.592;2022-09-11T14:10:17;25.40;94.10
19415;DHT22;9843;48.882;12.592;2022-09-11T14:12:48;25.20;95.50
19415;DHT22;9843;48.882;12.592;2022-09-11T14:15:28;24.90;94.60
19415;DHT22;9843;48.882;12.592;2022-09-11T14:18:00;24.60;94.20
19415;DHT22;9843;48.882;12.592;2022-09-11T14:20:27;24.20;95.00
19415;DHT22;9843;48.882;12.592;2022-09-11T14:22:55;23.90;95.50
19415;DHT22;9843;48.882;12.592;2022-09-11T14:25:23;23.60;95.70
19415;DHT22;9843;48.882;12.592;2022-09-11T14:27:50;23.30;96.10
19415;DHT22;9843;48.882;12.592;2022-09-11T14:30:32;23.00;97.10
19415;DHT22;9843;48.882;12.592;2022-09-11T14:33:29;22.50;97.50
19415;DHT22;9843;48.882;12.592;2022-09-11T14:36:01;21.80;98.60
19415;DHT22;9843;48.882;12.592;2022-09-11T14:38:29;21.30;99.50
19415;DHT22;9843;48.882;12.592;2022-09-11T14:40:59;21.10;99.90
19415;DHT22;9843;48.882;12.592;2022-09-11T14:43:28;20.80;99.90
19415;DHT22;9843;48.882;12.592;2022-09-11T14:45:57;20.70;99.90
19415;DHT22;9843;48.882;12.592;2022-09-11T14:48:26;20.60;99.90
19415;DHT22;9843;48.882;12.592;2022-09-11T14:50:53;20.60;99.90
19415;DHT22;9843;48.882;12.592;2022-09-11T14:53:25;20.50;99.90
19415;DHT22;9843;48.882;12.592;2022-09-11T14:55:54;20.50;99.90
19415;DHT22;9843;48.882;12.592;2022-09-11T14:58:22;20.50;99.90
19415;DHT22;9843;48.882;12.592;2022-09-11T15:00:49;20.60;99.90
19415;DHT22;9843;48.882;12.592;2022-09-11T15:03:15;20.50;99.90
19415;DHT22;9843;48.882;12.592;2022-09-11T15:05:44;20.50;99.90
19415;DHT22;9843;48.882;12.592;2022-09-11T15:08:12;20.50;99.90
19415;DHT22;9843;48.882;12.592;2022-09-11T15:10:39;20.50;99.90
19415;DHT22;9843;48.882;12.592;2022-09-11T15:13:07;20.50;99.90
19415;DHT22;9843;48.882;12.592;2022-09-11T15:15:34;20.60;99.90
19415;DHT22;9843;48.882;12.592;2022-09-11T15:18:00;20.70;99.90
19415;DHT22;9843;48.882;12.592;2022-09-11T15:20:27;20.70;99.90
19415;DHT22;9843;48.882;12.592;2022-09-11T15:22:55;20.70;99.90
19415;DHT22;9843;48.882;12.592;2022-09-11T15:25:22;20.70;99.90
19415;DHT22;9843;48.882;12.592;2022-09-11T15:27:50;20.60;99.90
19415;DHT22;9843;48.882;12.592;2022-09-11T15:30:18;20.50;99.90
19415;DHT22;9843;48.882;12.592;2022-09-11T15:32:45;20.40;99.90
19415;DHT22;9843;48.882;12.592;2022-09-11T15:35:12;20.20;99.90
19415;DHT22;9843;48.882;12.592;2022-09-11T15:37:43;20.00;99.90
19415;DHT22;9843;48.882;12.592;2022-09-11T15:40:11;19.90;99.90
19415;DHT22;9843;48.882;12.592;2022-09-11T15:42:38;19.60;99.90
19415;DHT22;9843;48.882;12.592;2022-09-11T15:45:07;19.40;99.90
19415;DHT22;9843;48.882;12.592;2022-09-11T15:47:34;19.20;99.90
19415;DHT22;9843;48.882;12.592;2022-09-11T15:50:01;19.10;99.90
19415;DHT22;9843;48.882;12.592;2022-09-11T15:52:27;18.90;99.90
19415;DHT22;9843;48.882;12.592;2022-09-11T15:54:54;18.80;99.90
19415;DHT22;9843;48.882;12.592;2022-09-11T15:57:23;18.70;99.90
19415;DHT22;9843;48.882;12.592;2022-09-11T15:59:50;18.60;99.90